Whitby, Canada
Current Conditions -  °F | °C
As of 3:00 AM on Friday 19 Dec 2014 (Local Time) from CYOO Reporting Station
Overcast Overcast  
Wind Chill: 14°   Ceiling: 1400
Heat Index: 23°   Visibility: 9mi
Dew Point: 18°   Wind: 8mph
Humidity: 80%   Direction: 350°N
Pressure: 30.13"   Gusts: NA
Location:  43.9°N, 78.94°W
Report Text: CYOO 190800Z AUTO 35007KT 9SM OVC014 M05/M08 A3013 RMK SLP209
Loading
Personal Weather Stations






























Interactive Weather Map New forecast layout! Learn more

10-Day Weather Forecast

Advertisements
Track Severe Weather on mobile